sensor_id;sensor_type;location;lat;lon;timestamp;pressure;altitude;pressure_sealevel;temperature;humidity
59650;BME280;46162;57.568;25.814;2023-04-05T00:01:12;101376.28;;;-2.18;100.00
59650;BME280;46162;57.568;25.814;2023-04-05T00:03:41;101380.63;;;-2.15;100.00
59650;BME280;46162;57.568;25.814;2023-04-05T00:06:10;101384.03;;;-2.13;100.00
59650;BME280;46162;57.568;25.814;2023-04-05T00:08:39;101378.81;;;-2.14;100.00
59650;BME280;46162;57.568;25.814;2023-04-05T00:11:08;101374.38;;;-2.14;100.00
59650;BME280;46162;57.568;25.814;2023-04-05T00:13:37;101382.38;;;-2.16;100.00
59650;BME280;46162;57.568;25.814;2023-04-05T00:16:05;101381.59;;;-2.18;100.00
59650;BME280;46162;57.568;25.814;2023-04-05T00:18:35;101385.94;;;-2.17;100.00
59650;BME280;46162;57.568;25.814;2023-04-05T00:21:04;101379.72;;;-2.16;100.00
59650;BME280;46162;57.568;25.814;2023-04-05T00:23:33;101379.78;;;-2.17;100.00
59650;BME280;46162;57.568;25.814;2023-04-05T00:26:05;101377.97;;;-2.15;100.00
59650;BME280;46162;57.568;25.814;2023-04-05T00:28:34;101383.44;;;-2.21;100.00
59650;BME280;46162;57.568;25.814;2023-04-05T00:31:03;101377.88;;;-2.13;100.00
59650;BME280;46162;57.568;25.814;2023-04-05T00:33:31;101383.34;;;-2.18;100.00
59650;BME280;46162;57.568;25.814;2023-04-05T00:38:48;101380.75;;;-2.20;100.00
59650;BME280;46162;57.568;25.814;2023-04-05T00:41:16;101381.50;;;-2.16;100.00
59650;BME280;46162;57.568;25.814;2023-04-05T00:43:45;101386.91;;;-2.19;100.00
59650;BME280;46162;57.568;25.814;2023-04-05T00:46:14;101384.31;;;-2.21;100.00
59650;BME280;46162;57.568;25.814;2023-04-05T00:48:42;101386.91;;;-2.19;100.00
59650;BME280;46162;57.568;25.814;2023-04-05T00:51:10;101381.66;;;-2.21;100.00
59650;BME280;46162;57.568;25.814;2023-04-05T00:53:39;101380.91;;;-2.24;100.00
59650;BME280;46162;57.568;25.814;2023-04-05T00:56:10;101386.09;;;-2.21;100.00
59650;BME280;46162;57.568;25.814;2023-04-05T00:58:39;101380.75;;;-2.20;100.00
59650;BME280;46162;57.568;25.814;2023-04-05T01:01:09;101382.59;;;-2.22;100.00
59650;BME280;46162;57.568;25.814;2023-04-05T01:03:41;101369.41;;;-2.23;100.00
59650;BME280;46162;57.568;25.814;2023-04-05T01:06:15;101376.66;;;-2.28;100.00
59650;BME280;46162;57.568;25.814;2023-04-05T01:08:48;101372.06;;;-2.23;100.00
59650;BME280;46162;57.568;25.814;2023-04-05T01:11:20;101378.00;;;-2.17;100.00
59650;BME280;46162;57.568;25.814;2023-04-05T01:13:51;101372.72;;;-2.17;100.00
59650;BME280;46162;57.568;25.814;2023-04-05T01:16:24;101372.88;;;-2.21;100.00
59650;BME280;46162;57.568;25.814;2023-04-05T01:18:53;101375.47;;;-2.20;100.00
59650;BME280;46162;57.568;25.814;2023-04-05T01:21:30;101365.72;;;-2.18;100.00
59650;BME280;46162;57.568;25.814;2023-04-05T01:24:08;101365.72;;;-2.18;100.00
59650;BME280;46162;57.568;25.814;2023-04-05T01:26:49;101379.84;;;-2.19;100.00
59650;BME280;46162;57.568;25.814;2023-04-05T01:32:09;101375.31;;;-2.15;100.00
59650;BME280;46162;57.568;25.814;2023-04-05T01:34:39;101374.50;;;-2.17;100.00
59650;BME280;46162;57.568;25.814;2023-04-05T01:37:14;101374.44;;;-2.16;100.00
59650;BME280;46162;57.568;25.814;2023-04-05T01:39:43;101377.03;;;-2.14;100.00
59650;BME280;46162;57.568;25.814;2023-04-05T01:42:13;101377.84;;;-2.12;100.00
59650;BME280;46162;57.568;25.814;2023-04-05T01:44:41;101376.88;;;-2.09;100.00
59650;BME280;46162;57.568;25.814;2023-04-05T01:47:11;101373.31;;;-2.08;100.00
59650;BME280;46162;57.568;25.814;2023-04-05T01:49:39;101382.31;;;-2.14;100.00
59650;BME280;46162;57.568;25.814;2023-04-05T01:52:07;101384.03;;;-2.13;100.00
59650;BME280;46162;57.568;25.814;2023-04-05T01:54:35;101387.50;;;-2.11;100.00
59650;BME280;46162;57.568;25.814;2023-04-05T01:57:04;101386.59;;;-2.10;100.00
59650;BME280;46162;57.568;25.814;2023-04-05T01:59:32;101384.75;;;-2.08;100.00
59650;BME280;46162;57.568;25.814;2023-04-05T02:02:00;101388.13;;;-2.03;100.00
59650;BME280;46162;57.568;25.814;2023-04-05T02:04:30;101387.94;;;-1.98;100.00
59650;BME280;46162;57.568;25.814;2023-04-05T02:06:58;101395.25;;;-2.05;100.00
59650;BME280;46162;57.568;25.814;2023-04-05T02:09:26;101383.75;;;-2.05;100.00
59650;BME280;46162;57.568;25.814;2023-04-05T02:11:55;101384.53;;;-2.02;100.00
59650;BME280;46162;57.568;25.814;2023-04-05T02:14:23;101379.38;;;-2.05;100.00
59650;BME280;46162;57.568;25.814;2023-04-05T02:16:52;101382.16;;;-2.09;100.00
59650;BME280;46162;57.568;25.814;2023-04-05T02:19:23;101377.72;;;-2.09;100.00
59650;BME280;46162;57.568;25.814;2023-04-05T02:21:53;101376.75;;;-2.06;100.00
59650;BME280;46162;57.568;25.814;2023-04-05T02:24:21;101381.13;;;-2.05;100.00
59650;BME280;46162;57.568;25.814;2023-04-05T02:26:49;101380.38;;;-2.09;100.00
59650;BME280;46162;57.568;25.814;2023-04-05T02:29:18;101382.91;;;-2.06;100.00
59650;BME280;46162;57.568;25.814;2023-04-05T02:31:47;101373.72;;;-1.96;100.00
59650;BME280;46162;57.568;25.814;2023-04-05T02:34:16;101378.38;;;-2.02;100.00
59650;BME280;46162;57.568;25.814;2023-04-05T02:36:44;101381.94;;;-2.03;100.00
59650;BME280;46162;57.568;25.814;2023-04-05T02:39:14;101381.03;;;-2.02;100.00
59650;BME280;46162;57.568;25.814;2023-04-05T02:41:43;101376.72;;;-2.05;100.00
59650;BME280;46162;57.568;25.814;2023-04-05T02:44:12;101366.06;;;-2.03;100.00
59650;BME280;46162;57.568;25.814;2023-04-05T02:46:40;101377.56;;;-2.04;100.00
59650;BME280;46162;57.568;25.814;2023-04-05T02:49:09;101377.53;;;-2.03;100.00
59650;BME280;46162;57.568;25.814;2023-04-05T02:51:37;101382.47;;;-1.93;100.00
59650;BME280;46162;57.568;25.814;2023-04-05T02:54:08;101386.06;;;-1.95;100.00
59650;BME280;46162;57.568;25.814;2023-04-05T02:56:39;101376.59;;;-2.02;100.00
59650;BME280;46162;57.568;25.814;2023-04-05T02:59:12;101384.66;;;-2.05;100.00
59650;BME280;46162;57.568;25.814;2023-04-05T03:01:43;101377.63;;;-2.06;100.00
59650;BME280;46162;57.568;25.814;2023-04-05T03:04:20;101387.31;;;-2.05;100.00
59650;BME280;46162;57.568;25.814;2023-04-05T03:06:58;101378.59;;;-2.08;100.00
59650;BME280;46162;57.568;25.814;2023-04-05T03:09:31;101385.66;;;-2.09;100.00
59650;BME280;46162;57.568;25.814;2023-04-05T03:12:05;101383.84;;;-2.07;100.00
59650;BME280;46162;57.568;25.814;2023-04-05T03:14:38;101383.84;;;-2.07;100.00
59650;BME280;46162;57.568;25.814;2023-04-05T03:17:10;101373.97;;;-2.02;100.00
59650;BME280;46162;57.568;25.814;2023-04-05T03:19:42;101382.47;;;-1.93;100.00
59650;BME280;46162;57.568;25.814;2023-04-05T03:22:25;101380.53;;;-1.88;100.00
59650;BME280;46162;57.568;25.814;2023-04-05T03:24:55;101371.31;;;-2.02;100.00
59650;BME280;46162;57.568;25.814;2023-04-05T03:27:27;101369.59;;;-2.03;100.00
59650;BME280;46162;57.568;25.814;2023-04-05T03:30:16;101382.59;;;-1.97;100.00
59650;BME280;46162;57.568;25.814;2023-04-05T03:32:51;101368.44;;;-1.96;100.00
59650;BME280;46162;57.568;25.814;2023-04-05T03:35:33;101373.09;;;-2.02;100.00
59650;BME280;46162;57.568;25.814;2023-04-05T03:38:05;101373.69;;;-1.94;100.00
59650;BME280;46162;57.568;25.814;2023-04-05T03:40:38;101375.75;;;-2.02;100.00
59650;BME280;46162;57.568;25.814;2023-04-05T03:43:10;101372.97;;;-1.99;100.00
59650;BME280;46162;57.568;25.814;2023-04-05T03:45:38;101373.09;;;-2.02;100.00
59650;BME280;46162;57.568;25.814;2023-04-05T03:48:07;101373.97;;;-2.02;100.00
59650;BME280;46162;57.568;25.814;2023-04-05T03:50:36;101373.19;;;-2.05;100.00
59650;BME280;46162;57.568;25.814;2023-04-05T03:53:04;101372.41;;;-2.07;100.00
59650;BME280;46162;57.568;25.814;2023-04-05T03:55:34;101380.34;;;-2.07;100.00
59650;BME280;46162;57.568;25.814;2023-04-05T03:58:05;101380.34;;;-2.07;100.00
59650;BME280;46162;57.568;25.814;2023-04-05T04:00:36;101378.47;;;-2.05;100.00
59650;BME280;46162;57.568;25.814;2023-04-05T04:03:23;101381.91;;;-2.02;100.00
59650;BME280;46162;57.568;25.814;2023-04-05T04:05:55;101383.59;;;-2.01;100.00
59650;BME280;46162;57.568;25.814;2023-04-05T04:08:23;101386.38;;;-2.04;100.00
59650;BME280;46162;57.568;25.814;2023-04-05T04:10:52;101386.31;;;-2.02;100.00
59650;BME280;46162;57.568;25.814;2023-04-05T04:13:24;101387.88;;;-1.97;100.00
59650;BME280;46162;57.568;25.814;2023-04-05T04:16:12;101385.28;;;-1.98;100.00
59650;BME280;46162;57.568;25.814;2023-04-05T04:19:13;101399.41;;;-1.98;100.00
59650;BME280;46162;57.568;25.814;2023-04-05T04:22:00;101388.00;;;-2.00;100.00
59650;BME280;46162;57.568;25.814;2023-04-05T04:24:46;101384.41;;;-1.99;100.00
59650;BME280;46162;57.568;25.814;2023-04-05T04:27:34;101383.41;;;-1.95;100.00
59650;BME280;46162;57.568;25.814;2023-04-05T04:30:06;101390.41;;;-1.93;100.00
59650;BME280;46162;57.568;25.814;2023-04-05T04:32:55;101393.06;;;-1.93;100.00
59650;BME280;46162;57.568;25.814;2023-04-05T04:36:04;101387.50;;;-1.86;100.00
59650;BME280;46162;57.568;25.814;2023-04-05T04:38:53;101392.03;;;-1.89;100.00
59650;BME280;46162;57.568;25.814;2023-04-05T04:41:25;101389.34;;;-1.88;100.00
59650;BME280;46162;57.568;25.814;2023-04-05T04:43:56;101391.75;;;-1.82;100.00
59650;BME280;46162;57.568;25.814;2023-04-05T04:46:47;101397.78;;;-1.78;100.00
59650;BME280;46162;57.568;25.814;2023-04-05T04:49:47;101392.41;;;-1.75;100.00
59650;BME280;46162;57.568;25.814;2023-04-05T04:52:16;101399.69;;;-1.82;100.00
59650;BME280;46162;57.568;25.814;2023-04-05T04:54:44;101391.53;;;-1.76;100.00
59650;BME280;46162;57.568;25.814;2023-04-05T04:57:13;101401.25;;;-1.76;100.00
59650;BME280;46162;57.568;25.814;2023-04-05T04:59:41;101403.81;;;-1.73;100.00
59650;BME280;46162;57.568;25.814;2023-04-05T05:02:10;101400.19;;;-1.70;100.00
59650;BME280;46162;57.568;25.814;2023-04-05T05:04:38;101408.63;;;-1.61;100.00
59650;BME280;46162;57.568;25.814;2023-04-05T05:07:08;101404.28;;;-1.62;100.00
59650;BME280;46162;57.568;25.814;2023-04-05T05:09:37;101406.63;;;-1.54;100.00
59650;BME280;46162;57.568;25.814;2023-04-05T05:12:06;101411.75;;;-1.49;100.00
59650;BME280;46162;57.568;25.814;2023-04-05T05:14:34;101410.03;;;-1.50;100.00
59650;BME280;46162;57.568;25.814;2023-04-05T05:17:03;101405.19;;;-1.39;100.00
59650;BME280;46162;57.568;25.814;2023-04-05T05:19:32;101409.84;;;-1.46;100.00
59650;BME280;46162;57.568;25.814;2023-04-05T05:22:01;101409.47;;;-1.35;100.00
59650;BME280;46162;57.568;25.814;2023-04-05T05:24:31;101416.00;;;-1.22;100.00
59650;BME280;46162;57.568;25.814;2023-04-05T05:26:59;101413.25;;;-1.19;100.00
59650;BME280;46162;57.568;25.814;2023-04-05T05:29:27;101410.94;;;-1.04;100.00
59650;BME280;46162;57.568;25.814;2023-04-05T05:31:56;101411.72;;;-1.02;100.00
59650;BME280;46162;57.568;25.814;2023-04-05T05:34:24;101406.00;;;-0.92;100.00
59650;BME280;46162;57.568;25.814;2023-04-05T05:36:56;101412.25;;;-0.93;100.00
59650;BME280;46162;57.568;25.814;2023-04-05T05:39:25;101412.09;;;-0.90;100.00
59650;BME280;46162;57.568;25.814;2023-04-05T05:41:54;101419.38;;;-0.95;100.00
59650;BME280;46162;57.568;25.814;2023-04-05T05:44:23;101413.69;;;-0.84;100.00
59650;BME280;46162;57.568;25.814;2023-04-05T05:46:51;101411.75;;;-0.80;100.00
59650;BME280;46162;57.568;25.814;2023-04-05T05:49:21;101415.94;;;-0.75;100.00
59650;BME280;46162;57.568;25.814;2023-04-05T05:51:50;101412.88;;;-0.64;100.00
59650;BME280;46162;57.568;25.814;2023-04-05T05:54:19;101418.84;;;-0.81;100.00
59650;BME280;46162;57.568;25.814;2023-04-05T05:56:47;101419.09;;;-0.65;100.00
59650;BME280;46162;57.568;25.814;2023-04-05T05:59:17;101420.81;;;-0.64;100.00
59650;BME280;46162;57.568;25.814;2023-04-05T06:01:46;101418.53;;;-0.51;100.00
59650;BME280;46162;57.568;25.814;2023-04-05T06:04:17;101416.41;;;-0.43;100.00
59650;BME280;46162;57.568;25.814;2023-04-05T06:06:46;101413.91;;;-0.46;100.00
59650;BME280;46162;57.568;25.814;2023-04-05T06:09:16;101418.50;;;-0.72;100.00
59650;BME280;46162;57.568;25.814;2023-04-05T06:11:44;101413.22;;;-0.51;100.00
59650;BME280;46162;57.568;25.814;2023-04-05T06:14:24;101421.41;;;-0.57;100.00
59650;BME280;46162;57.568;25.814;2023-04-05T06:16:52;101418.22;;;-0.44;100.00
59650;BME280;46162;57.568;25.814;2023-04-05T06:19:21;101412.59;;;-0.36;100.00
59650;BME280;46162;57.568;25.814;2023-04-05T06:21:50;101415.06;;;-0.53;100.00
59650;BME280;46162;57.568;25.814;2023-04-05T06:24:18;101417.47;;;-0.47;100.00
59650;BME280;46162;57.568;25.814;2023-04-05T06:26:46;101421.19;;;-0.51;100.00
59650;BME280;46162;57.568;25.814;2023-04-05T06:29:15;101419.19;;;-0.46;100.00
59650;BME280;46162;57.568;25.814;2023-04-05T06:31:45;101416.09;;;-0.35;100.00
59650;BME280;46162;57.568;25.814;2023-04-05T06:34:14;101414.97;;;-0.30;100.00
59650;BME280;46162;57.568;25.814;2023-04-05T06:36:42;101419.59;;;-0.35;100.00
59650;BME280;46162;57.568;25.814;2023-04-05T06:39:15;101422.66;;;-0.44;100.00
59650;BME280;46162;57.568;25.814;2023-04-05T06:41:43;101427.84;;;-0.41;100.00
59650;BME280;46162;57.568;25.814;2023-04-05T06:44:12;101423.06;;;-0.33;100.00
59650;BME280;46162;57.568;25.814;2023-04-05T06:46:40;101425.22;;;-0.43;100.00
59650;BME280;46162;57.568;25.814;2023-04-05T06:49:10;101420.44;;;-0.55;100.00
59650;BME280;46162;57.568;25.814;2023-04-05T06:51:38;101431.13;;;-0.56;100.00
59650;BME280;46162;57.568;25.814;2023-04-05T06:54:07;101431.94;;;-0.54;100.00
59650;BME280;46162;57.568;25.814;2023-04-05T06:56:35;101435.56;;;-0.57;100.00
59650;BME280;46162;57.568;25.814;2023-04-05T06:59:04;101434.94;;;-0.63;100.00
59650;BME280;46162;57.568;25.814;2023-04-05T07:01:33;101433.50;;;-0.50;100.00
59650;BME280;46162;57.568;25.814;2023-04-05T07:04:01;101435.47;;;-0.33;100.00
59650;BME280;46162;57.568;25.814;2023-04-05T07:06:31;101447.91;;;-0.13;100.00
59650;BME280;46162;57.568;25.814;2023-04-05T07:09:01;101444.63;;;-0.20;100.00
59650;BME280;46162;57.568;25.814;2023-04-05T07:11:29;101449.41;;;-0.28;100.00
59650;BME280;46162;57.568;25.814;2023-04-05T07:13:58;101448.41;;;-0.26;100.00
59650;BME280;46162;57.568;25.814;2023-04-05T07:16:27;101450.53;;;-0.34;100.00
59650;BME280;46162;57.568;25.814;2023-04-05T07:18:56;101453.72;;;-0.26;100.00
59650;BME280;46162;57.568;25.814;2023-04-05T07:21:25;101450.03;;;-0.22;100.00
59650;BME280;46162;57.568;25.814;2023-04-05T07:23:55;101457.03;;;-0.20;100.00
59650;BME280;46162;57.568;25.814;2023-04-05T07:26:26;101458.84;;;-0.21;100.00
59650;BME280;46162;57.568;25.814;2023-04-05T07:28:54;101459.50;;;-0.16;100.00
59650;BME280;46162;57.568;25.814;2023-04-05T07:31:23;101465.34;;;-0.08;100.00
59650;BME280;46162;57.568;25.814;2023-04-05T07:33:51;101460.13;;;-0.09;100.00
59650;BME280;46162;57.568;25.814;2023-04-05T07:36:20;101468.75;;;-0.04;100.00
59650;BME280;46162;57.568;25.814;2023-04-05T07:38:49;101466.13;;;-0.26;100.00
59650;BME280;46162;57.568;25.814;2023-04-05T07:41:19;101474.94;;;-0.26;100.00
59650;BME280;46162;57.568;25.814;2023-04-05T07:43:47;101477.03;;;-0.12;100.00
59650;BME280;46162;57.568;25.814;2023-04-05T07:46:15;101484.38;;;-0.18;100.00
59650;BME280;46162;57.568;25.814;2023-04-05T07:48:45;101485.34;;;-0.19;100.00
59650;BME280;46162;57.568;25.814;2023-04-05T07:51:13;101480.03;;;-0.19;100.00
59650;BME280;46162;57.568;25.814;2023-04-05T07:53:42;101486.19;;;-0.19;100.00
59650;BME280;46162;57.568;25.814;2023-04-05T07:56:10;101489.47;;;-0.12;100.00
59650;BME280;46162;57.568;25.814;2023-04-05T07:58:41;101494.56;;;-0.08;100.00
59650;BME280;46162;57.568;25.814;2023-04-05T08:01:10;101492.81;;;0.13;100.00
59650;BME280;46162;57.568;25.814;2023-04-05T08:03:38;101499.72;;;0.17;100.00
59650;BME280;46162;57.568;25.814;2023-04-05T08:06:10;101498.78;;;0.18;100.00
59650;BME280;46162;57.568;25.814;2023-04-05T08:08:39;101494.00;;;0.06;100.00
59650;BME280;46162;57.568;25.814;2023-04-05T08:11:08;101504.75;;;0.03;100.00
59650;BME280;46162;57.568;25.814;2023-04-05T08:13:37;101498.44;;;0.26;100.00
59650;BME280;46162;57.568;25.814;2023-04-05T08:16:09;101507.94;;;0.32;100.00
59650;BME280;46162;57.568;25.814;2023-04-05T08:18:38;101507.69;;;0.17;100.00
59650;BME280;46162;57.568;25.814;2023-04-05T08:21:06;101499.84;;;0.35;100.00
59650;BME280;46162;57.568;25.814;2023-04-05T08:23:34;101507.00;;;0.53;100.00
59650;BME280;46162;57.568;25.814;2023-04-05T08:26:03;101510.59;;;0.32;100.00
59650;BME280;46162;57.568;25.814;2023-04-05T08:28:33;101514.53;;;0.23;100.00
59650;BME280;46162;57.568;25.814;2023-04-05T08:31:02;101514.91;;;0.34;100.00
59650;BME280;46162;57.568;25.814;2023-04-05T08:33:32;101515.38;;;0.24;100.00
59650;BME280;46162;57.568;25.814;2023-04-05T08:36:02;101521.78;;;0.40;100.00
59650;BME280;46162;57.568;25.814;2023-04-05T08:38:31;101519.78;;;0.45;100.00
59650;BME280;46162;57.568;25.814;2023-04-05T08:41:05;101520.81;;;0.61;100.00
59650;BME280;46162;57.568;25.814;2023-04-05T08:43:38;101517.78;;;0.50;100.00
59650;BME280;46162;57.568;25.814;2023-04-05T08:46:08;101523.09;;;0.50;100.00
59650;BME280;46162;57.568;25.814;2023-04-05T08:48:38;101523.22;;;0.47;100.00
59650;BME280;46162;57.568;25.814;2023-04-05T08:51:07;101527.75;;;0.45;100.00
59650;BME280;46162;57.568;25.814;2023-04-05T08:53:36;101526.03;;;0.64;100.00
59650;BME280;46162;57.568;25.814;2023-04-05T08:56:05;101533.34;;;0.59;100.00
59650;BME280;46162;57.568;25.814;2023-04-05T08:58:34;101533.63;;;0.52;100.00
59650;BME280;46162;57.568;25.814;2023-04-05T09:01:04;101525.88;;;0.68;100.00
59650;BME280;46162;57.568;25.814;2023-04-05T09:03:34;101531.25;;;0.46;100.00
59650;BME280;46162;57.568;25.814;2023-04-05T09:06:08;101534.72;;;0.48;100.00
59650;BME280;46162;57.568;25.814;2023-04-05T09:08:38;101528.78;;;0.61;100.00
59650;BME280;46162;57.568;25.814;2023-04-05T09:11:06;101542.50;;;0.52;100.00
59650;BME280;46162;57.568;25.814;2023-04-05T09:13:34;101543.41;;;0.51;100.00
59650;BME280;46162;57.568;25.814;2023-04-05T09:16:03;101542.56;;;0.51;100.00
59650;BME280;46162;57.568;25.814;2023-04-05T09:18:32;101543.50;;;0.50;100.00
59650;BME280;46162;57.568;25.814;2023-04-05T09:21:03;101544.81;;;0.60;100.00
59650;BME280;46162;57.568;25.814;2023-04-05T09:23:34;101543.53;;;0.48;100.00
59650;BME280;46162;57.568;25.814;2023-04-05T09:26:16;101544.81;;;0.60;100.00
59650;BME280;46162;57.568;25.814;2023-04-05T09:28:44;101545.22;;;0.51;100.00
59650;BME280;46162;57.568;25.814;2023-04-05T09:31:28;101538.44;;;0.43;100.00
59650;BME280;46162;57.568;25.814;2023-04-05T09:33:57;101545.53;;;0.63;100.00
59650;BME280;46162;57.568;25.814;2023-04-05T09:36:27;101549.94;;;0.64;100.00
59650;BME280;46162;57.568;25.814;2023-04-05T09:39:09;101542.53;;;0.71;100.00
59650;BME280;46162;57.568;25.814;2023-04-05T09:41:38;101546.00;;;0.73;100.00
59650;BME280;46162;57.568;25.814;2023-04-05T09:44:06;101551.78;;;0.62;100.00
59650;BME280;46162;57.568;25.814;2023-04-05T09:46:35;101554.59;;;0.59;100.00
59650;BME280;46162;57.568;25.814;2023-04-05T09:49:04;101550.84;;;0.63;100.00
59650;BME280;46162;57.568;25.814;2023-04-05T09:51:35;101556.94;;;0.86;100.00
59650;BME280;46162;57.568;25.814;2023-04-05T09:54:09;101558.09;;;0.80;100.00
59650;BME280;46162;57.568;25.814;2023-04-05T09:56:38;101559.13;;;0.97;100.00
59650;BME280;46162;57.568;25.814;2023-04-05T09:59:07;101563.47;;;0.99;100.00
59650;BME280;46162;57.568;25.814;2023-04-05T10:01:37;101561.56;;;1.01;100.00
59650;BME280;46162;57.568;25.814;2023-04-05T10:04:07;101562.56;;;0.99;100.00
59650;BME280;46162;57.568;25.814;2023-04-05T10:06:36;101567.31;;;0.92;100.00
59650;BME280;46162;57.568;25.814;2023-04-05T10:09:06;101572.09;;;1.04;100.00
59650;BME280;46162;57.568;25.814;2023-04-05T10:11:36;101569.13;;;1.11;100.00
59650;BME280;46162;57.568;25.814;2023-04-05T10:14:05;101570.53;;;1.19;100.00
59650;BME280;46162;57.568;25.814;2023-04-05T10:16:39;101566.81;;;1.03;100.00
59650;BME280;46162;57.568;25.814;2023-04-05T10:19:14;101569.78;;;1.16;100.00
59650;BME280;46162;57.568;25.814;2023-04-05T10:21:43;101571.94;;;1.07;100.00
59650;BME280;46162;57.568;25.814;2023-04-05T10:24:14;101575.91;;;1.18;100.00
59650;BME280;46162;57.568;25.814;2023-04-05T10:26:47;101581.22;;;1.18;100.00
59650;BME280;46162;57.568;25.814;2023-04-05T10:29:23;101575.28;;;1.32;100.00
59650;BME280;46162;57.568;25.814;2023-04-05T10:31:54;101588.94;;;1.24;100.00
59650;BME280;46162;57.568;25.814;2023-04-05T10:34:28;101589.03;;;1.41;100.00
59650;BME280;46162;57.568;25.814;2023-04-05T10:36:59;101595.28;;;1.21;100.00
59650;BME280;46162;57.568;25.814;2023-04-05T10:39:29;101593.22;;;1.07;100.00
59650;BME280;46162;57.568;25.814;2023-04-05T10:42:04;101594.53;;;1.18;100.00
59650;BME280;46162;57.568;25.814;2023-04-05T10:44:34;101597.69;;;1.07;100.00
59650;BME280;46162;57.568;25.814;2023-04-05T10:47:03;101595.53;;;1.15;100.00
59650;BME280;46162;57.568;25.814;2023-04-05T10:49:32;101598.69;;;1.04;100.00
59650;BME280;46162;57.568;25.814;2023-04-05T10:52:04;101598.78;;;1.01;100.00
59650;BME280;46162;57.568;25.814;2023-04-05T10:54:33;101603.47;;;1.36;100.00
59650;BME280;46162;57.568;25.814;2023-04-05T10:57:05;101590.28;;;1.14;100.00
59650;BME280;46162;57.568;25.814;2023-04-05T10:59:39;101595.97;;;1.25;100.00
59650;BME280;46162;57.568;25.814;2023-04-05T11:02:08;101599.44;;;1.27;100.00
59650;BME280;46162;57.568;25.814;2023-04-05T11:04:38;101598.59;;;1.26;100.00
59650;BME280;46162;57.568;25.814;2023-04-05T11:07:12;101600.09;;;1.32;100.00
59650;BME280;46162;57.568;25.814;2023-04-05T11:09:49;101596.88;;;1.44;100.00
59650;BME280;46162;57.568;25.814;2023-04-05T11:12:20;101605.19;;;1.56;100.00
59650;BME280;46162;57.568;25.814;2023-04-05T11:18:00;101604.84;;;1.44;100.00
59650;BME280;46162;57.568;25.814;2023-04-05T11:20:38;101602.25;;;1.62;100.00
59650;BME280;46162;57.568;25.814;2023-04-05T11:23:07;101601.69;;;1.55;100.00
59650;BME280;46162;57.568;25.814;2023-04-05T11:25:36;101605.91;;;1.40;100.00
59650;BME280;46162;57.568;25.814;2023-04-05T11:28:07;101602.31;;;1.22;100.00
59650;BME280;46162;57.568;25.814;2023-04-05T11:30:48;101601.31;;;1.25;100.00
59650;BME280;46162;57.568;25.814;2023-04-05T11:33:37;101610.47;;;1.18;100.00
59650;BME280;46162;57.568;25.814;2023-04-05T11:36:06;101614.34;;;1.31;100.00
59650;BME280;46162;57.568;25.814;2023-04-05T11:38:36;101602.91;;;1.29;100.00
59650;BME280;46162;57.568;25.814;2023-04-05T11:41:04;101611.50;;;1.15;100.00
59650;BME280;46162;57.568;25.814;2023-04-05T11:43:35;101614.34;;;1.31;100.00
59650;BME280;46162;57.568;25.814;2023-04-05T11:46:05;101610.94;;;1.27;100.00
59650;BME280;46162;57.568;25.814;2023-04-05T11:48:33;101613.19;;;1.37;100.00
59650;BME280;46162;57.568;25.814;2023-04-05T11:51:05;101610.94;;;1.27;100.00
59650;BME280;46162;57.568;25.814;2023-04-05T11:53:34;101616.81;;;1.15;100.00
59650;BME280;46162;57.568;25.814;2023-04-05T11:56:06;101614.66;;;1.23;100.00
59650;BME280;46162;57.568;25.814;2023-04-05T11:58:37;101619.13;;;1.23;100.00
59650;BME280;46162;57.568;25.814;2023-04-05T12:01:06;101617.25;;;1.25;100.00
59650;BME280;46162;57.568;25.814;2023-04-05T12:03:35;101623.38;;;1.27;100.00
59650;BME280;46162;57.568;25.814;2023-04-05T12:06:04;101615.41;;;1.27;100.00
59650;BME280;46162;57.568;25.814;2023-04-05T12:08:38;101623.63;;;1.21;100.00
59650;BME280;46162;57.568;25.814;2023-04-05T12:11:08;101607.41;;;1.27;100.00
59650;BME280;46162;57.568;25.814;2023-04-05T12:13:38;101615.09;;;1.33;100.00
59650;BME280;46162;57.568;25.814;2023-04-05T12:16:07;101610.59;;;1.35;100.00
59650;BME280;46162;57.568;25.814;2023-04-05T12:18:39;101614.66;;;1.23;100.00
59650;BME280;46162;57.568;25.814;2023-04-05T12:21:08;101615.81;;;1.18;100.00
59650;BME280;46162;57.568;25.814;2023-04-05T12:23:36;101614.19;;;1.34;100.00
59650;BME280;46162;57.568;25.814;2023-04-05T12:26:05;101616.09;;;1.31;100.00
59650;BME280;46162;57.568;25.814;2023-04-05T12:28:51;101612.75;;;1.27;100.00
59650;BME280;46162;57.568;25.814;2023-04-05T12:31:38;101624.75;;;1.36;100.00
59650;BME280;46162;57.568;25.814;2023-04-05T12:34:07;101617.56;;;1.38;100.00
59650;BME280;46162;57.568;25.814;2023-04-05T12:36:36;101617.44;;;1.60;100.00
59650;BME280;46162;57.568;25.814;2023-04-05T12:39:06;101624.13;;;1.49;100.00
59650;BME280;46162;57.568;25.814;2023-04-05T12:41:35;101619.44;;;1.55;100.00
59650;BME280;46162;57.568;25.814;2023-04-05T12:44:07;101624.28;;;1.46;100.00
59650;BME280;46162;57.568;25.814;2023-04-05T12:46:39;101621.16;;;1.56;100.00
59650;BME280;46162;57.568;25.814;2023-04-05T12:49:09;101623.47;;;1.44;100.00
59650;BME280;46162;57.568;25.814;2023-04-05T12:51:40;101624.06;;;1.51;100.00
59650;BME280;46162;57.568;25.814;2023-04-05T12:54:11;101626.50;;;1.56;100.00
59650;BME280;46162;57.568;25.814;2023-04-05T12:56:41;101619.88;;;1.45;100.00
59650;BME280;46162;57.568;25.814;2023-04-05T12:59:11;101620.47;;;1.71;100.00
59650;BME280;46162;57.568;25.814;2023-04-05T13:01:39;101621.75;;;1.81;100.00